Time;durP1;ratioP1;P1;durP2;ratioP2;P2;SDS_P1;SDS_P2;PMS_P1;PMS_P2;Temp;Humidity;BMP_temperature;BMP_pressure;BME280_temperature;BME280_humidity;BME280_pressure;Samples;Min_cycle;Max_cycle;Signal;HPM_P1;HPM_P2
2023/02/06 00:01:07;;;;;;;;;;;17.20;62.00;;;;;;5037072;28;813;-71
2023/02/06 00:03:33;;;;;;;;;;;17.20;62.00;;;;;;5039022;28;1290;-71
2023/02/06 00:05:58;;;;;;;;;;;17.20;62.00;;;;;;5038837;28;954;-71
2023/02/06 00:08:24;;;;;;;;;;;17.20;62.00;;;;;;5042796;28;887;-71
2023/02/06 00:10:50;;;;;;;;;;;17.20;62.00;;;;;;5055753;28;1894;-72
2023/02/06 00:13:15;;;;;;;;;;;17.20;62.00;;;;;;5056029;28;821;-71
2023/02/06 00:15:40;;;;;;;;;;;17.20;62.50;;;;;;5027450;28;1049;-72
2023/02/06 00:18:06;;;;;;;;;;;17.20;62.10;;;;;;5039847;28;800;-71
2023/02/06 00:20:31;;;;;;;;;;;17.20;62.00;;;;;;5038725;28;1279;-71
2023/02/06 00:22:57;;;;;;;;;;;17.20;62.10;;;;;;5038163;28;1089;-71
2023/02/06 00:25:22;;;;;;;;;;;17.20;62.10;;;;;;5038516;28;863;-71
2023/02/06 00:27:50;;;;;;;;;;;17.30;62.10;;;;;;5041635;28;808;-72
2023/02/06 00:30:15;;;;;;;;;;;17.20;62.10;;;;;;5038716;28;1989;-71
2023/02/06 00:32:41;;;;;;;;;;;17.30;62.20;;;;;;5044710;28;947;-71
2023/02/06 00:35:06;;;;;;;;;;;17.20;62.10;;;;;;5042042;28;1362;-72
2023/02/06 00:37:32;;;;;;;;;;;17.20;62.10;;;;;;5039422;28;807;-71
2023/02/06 00:39:57;;;;;;;;;;;17.20;62.90;;;;;;5030659;28;1273;-72
2023/02/06 00:42:23;;;;;;;;;;;17.20;62.20;;;;;;5038785;28;800;-72
2023/02/06 00:44:48;;;;;;;;;;;17.20;62.10;;;;;;5038747;28;804;-72
2023/02/06 00:47:14;;;;;;;;;;;17.20;62.10;;;;;;5040812;28;924;-71
2023/02/06 00:49:39;;;;;;;;;;;17.20;62.20;;;;;;5040434;28;1997;-71
2023/02/06 00:52:04;;;;;;;;;;;17.20;62.20;;;;;;5039708;28;891;-71
2023/02/06 00:54:30;;;;;;;;;;;17.20;62.20;;;;;;5039186;28;1010;-71
2023/02/06 00:56:55;;;;;;;;;;;17.20;62.20;;;;;;5038350;28;872;-71
2023/02/06 00:59:21;;;;;;;;;;;17.20;62.20;;;;;;5037987;28;1318;-71
2023/02/06 01:01:46;;;;;;;;;;;17.20;62.20;;;;;;5040016;28;875;-71
2023/02/06 01:04:12;;;;;;;;;;;17.20;62.20;;;;;;5042528;28;1443;-71
2023/02/06 01:06:37;;;;;;;;;;;17.20;62.20;;;;;;5039145;28;973;-72
2023/02/06 01:09:03;;;;;;;;;;;17.20;62.20;;;;;;5037189;28;1316;-71
2023/02/06 01:11:28;;;;;;;;;;;17.10;62.50;;;;;;5036852;28;1953;-71
2023/02/06 01:13:54;;;;;;;;;;;17.20;62.20;;;;;;5040654;28;795;-71
2023/02/06 01:16:20;;;;;;;;;;;17.20;62.30;;;;;;5038116;28;906;-71
2023/02/06 01:18:46;;;;;;;;;;;17.10;62.20;;;;;;5039333;28;1275;-71
2023/02/06 01:21:12;;;;;;;;;;;17.10;62.20;;;;;;5050176;28;857;-71
2023/02/06 01:23:38;;;;;;;;;;;17.10;62.20;;;;;;5026181;28;1183;-71
2023/02/06 01:26:11;;;;;;;;;;;17.10;62.20;;;;;;5052728;28;824;-71
2023/02/06 01:28:37;;;;;;;;;;;17.10;62.20;;;;;;5035524;28;1297;-71
2023/02/06 01:31:12;;;;;;;;;;;17.20;62.30;;;;;;5025015;28;1902;-71
2023/02/06 01:33:38;;;;;;;;;;;17.20;62.30;;;;;;5035122;28;1716;-71
2023/02/06 01:36:03;;;;;;;;;;;17.20;62.30;;;;;;5023592;28;864;-71
2023/02/06 01:38:29;;;;;;;;;;;17.10;62.20;;;;;;5034393;28;1373;-71
2023/02/06 01:40:55;;;;;;;;;;;17.10;62.30;;;;;;5036023;28;1391;-71
2023/02/06 01:43:26;;;;;;;;;;;17.20;62.30;;;;;;5041190;28;1220;-71
2023/02/06 01:45:51;;;;;;;;;;;17.10;62.30;;;;;;5056435;28;981;-71
2023/02/06 01:48:23;;;;;;;;;;;17.10;62.30;;;;;;5036381;28;844;-69
2023/02/06 01:50:49;;;;;;;;;;;17.10;62.30;;;;;;5024872;28;1965;-71
2023/02/06 01:53:15;;;;;;;;;;;17.10;62.30;;;;;;5055689;28;959;-71
2023/02/06 01:55:40;;;;;;;;;;;17.10;62.30;;;;;;5037124;28;906;-70
2023/02/06 01:58:06;;;;;;;;;;;17.10;63.00;;;;;;5039664;28;1268;-70
2023/02/06 02:00:32;;;;;;;;;;;17.10;62.30;;;;;;5022071;28;1365;-71
2023/02/06 02:02:57;;;;;;;;;;;17.10;62.30;;;;;;5034090;28;1223;-71
2023/02/06 02:05:23;;;;;;;;;;;17.10;62.30;;;;;;5037177;28;868;-69
2023/02/06 02:07:59;;;;;;;;;;;17.10;62.40;;;;;;5038019;28;871;-69
2023/02/06 02:10:26;;;;;;;;;;;17.10;62.40;;;;;;5056540;28;1898;-69
2023/02/06 02:12:51;;;;;;;;;;;17.10;62.40;;;;;;5043062;28;947;-69
2023/02/06 02:15:17;;;;;;;;;;;17.10;62.40;;;;;;5037806;28;896;-69
2023/02/06 02:17:45;;;;;;;;;;;17.10;62.40;;;;;;5057061;28;990;-69
2023/02/06 02:20:29;;;;;;;;;;;17.10;62.30;;;;;;5041498;28;1196;-69
2023/02/06 02:23:06;;;;;;;;;;;17.10;62.40;;;;;;5041604;28;1022;-69
2023/02/06 02:25:44;;;;;;;;;;;17.10;62.40;;;;;;5041860;28;985;-70
2023/02/06 02:28:15;;;;;;;;;;;17.10;62.40;;;;;;5041187;28;1112;-71
2023/02/06 02:30:43;;;;;;;;;;;17.10;62.40;;;;;;5035196;28;1910;-71
2023/02/06 02:33:27;;;;;;;;;;;17.10;62.40;;;;;;5044518;28;921;-70
2023/02/06 02:36:02;;;;;;;;;;;17.10;62.40;;;;;;5039610;28;1354;-70
2023/02/06 02:38:28;;;;;;;;;;;17.10;62.40;;;;;;5054600;28;1267;-70
2023/02/06 02:40:54;;;;;;;;;;;17.10;62.40;;;;;;5041804;28;884;-70
2023/02/06 02:43:23;;;;;;;;;;;17.10;62.40;;;;;;5023348;28;892;-70
2023/02/06 02:45:57;;;;;;;;;;;17.10;62.40;;;;;;5053440;28;926;-70
2023/02/06 02:48:23;;;;;;;;;;;17.10;62.40;;;;;;5041882;28;769;-69
2023/02/06 02:50:49;;;;;;;;;;;17.10;62.40;;;;;;5041153;28;1902;-70
2023/02/06 02:53:14;;;;;;;;;;;17.00;62.40;;;;;;5040520;28;808;-69
2023/02/06 02:55:40;;;;;;;;;;;17.00;62.40;;;;;;5042544;28;893;-70
2023/02/06 02:58:08;;;;;;;;;;;17.10;62.50;;;;;;5038897;28;863;-71
2023/02/06 03:00:34;;;;;;;;;;;17.10;62.50;;;;;;5026991;28;1259;-71
2023/02/06 03:02:59;;;;;;;;;;;17.10;62.50;;;;;;5024851;28;981;-69
2023/02/06 03:05:25;;;;;;;;;;;17.10;62.50;;;;;;5056230;28;1325;-70
2023/02/06 03:08:07;;;;;;;;;;;17.10;62.50;;;;;;5026685;28;844;-69
2023/02/06 03:10:35;;;;;;;;;;;17.10;62.50;;;;;;5026662;28;1963;-69
2023/02/06 03:13:21;;;;;;;;;;;17.00;62.40;;;;;;5044807;28;883;-70
2023/02/06 03:15:58;;;;;;;;;;;17.10;62.80;;;;;;5039915;28;1029;-69
2023/02/06 03:18:34;;;;;;;;;;;17.00;62.40;;;;;;5054790;28;917;-69
2023/02/06 03:21:00;;;;;;;;;;;17.00;62.50;;;;;;5026257;28;896;-69
2023/02/06 03:23:27;;;;;;;;;;;17.00;62.50;;;;;;5027029;28;943;-70
2023/02/06 03:25:53;;;;;;;;;;;17.10;62.50;;;;;;5057470;28;1359;-68
2023/02/06 03:28:21;;;;;;;;;;;17.00;62.50;;;;;;5023204;28;915;-69
2023/02/06 03:30:47;;;;;;;;;;;17.00;62.50;;;;;;5026174;28;1946;-69
2023/02/06 03:33:12;;;;;;;;;;;17.00;62.50;;;;;;5026709;28;807;-70
2023/02/06 03:35:38;;;;;;;;;;;17.00;62.50;;;;;;5025701;28;1081;-70
2023/02/06 03:38:03;;;;;;;;;;;17.00;62.50;;;;;;5040748;28;938;-70
2023/02/06 03:40:29;;;;;;;;;;;17.00;62.50;;;;;;5026672;28;1372;-68
2023/02/06 03:42:55;;;;;;;;;;;17.00;62.50;;;;;;5040021;28;879;-70
2023/02/06 03:45:23;;;;;;;;;;;17.00;62.50;;;;;;5025458;28;1235;-70
2023/02/06 03:47:48;;;;;;;;;;;17.00;62.50;;;;;;5023736;28;970;-70
2023/02/06 03:50:14;;;;;;;;;;;17.00;62.50;;;;;;5026762;28;2044;-70
2023/02/06 03:52:43;;;;;;;;;;;17.00;62.50;;;;;;5054352;28;912;-70
2023/02/06 03:55:12;;;;;;;;;;;17.00;62.50;;;;;;5015214;28;1298;-70
2023/02/06 03:57:38;;;;;;;;;;;17.00;62.50;;;;;;5025443;28;815;-70
2023/02/06 04:00:04;;;;;;;;;;;17.00;62.50;;;;;;5055890;28;1343;-70
2023/02/06 04:02:29;;;;;;;;;;;17.00;62.50;;;;;;5026012;28;1113;-72
2023/02/06 04:04:54;;;;;;;;;;;17.00;62.50;;;;;;5016276;28;1340;-72
2023/02/06 04:07:24;;;;;;;;;;;17.00;62.60;;;;;;5042344;28;829;-71
2023/02/06 04:09:49;;;;;;;;;;;17.00;62.50;;;;;;5052812;28;1894;-72
2023/02/06 04:12:15;;;;;;;;;;;17.00;62.60;;;;;;5055595;28;826;-72
2023/02/06 04:14:43;;;;;;;;;;;17.00;62.60;;;;;;5040023;28;880;-71
2023/02/06 04:17:09;;;;;;;;;;;17.00;62.60;;;;;;5041044;28;864;-72
2023/02/06 04:19:34;;;;;;;;;;;17.00;62.60;;;;;;5026139;28;1233;-72
2023/02/06 04:22:00;;;;;;;;;;;17.00;62.60;;;;;;5040767;28;943;-72
2023/02/06 04:24:26;;;;;;;;;;;17.00;62.60;;;;;;5056452;28;953;-72
2023/02/06 04:26:51;;;;;;;;;;;17.00;62.50;;;;;;5043013;28;1319;-71
2023/02/06 04:29:17;;;;;;;;;;;17.00;62.60;;;;;;5025440;28;1358;-71
2023/02/06 04:31:42;;;;;;;;;;;17.00;62.60;;;;;;5044275;28;1906;-71
2023/02/06 04:34:08;;;;;;;;;;;17.00;62.60;;;;;;5043962;28;833;-71
2023/02/06 04:36:33;;;;;;;;;;;17.00;62.60;;;;;;5040092;28;1291;-70
2023/02/06 04:38:59;;;;;;;;;;;17.00;62.60;;;;;;5053411;28;1336;-71
2023/02/06 04:41:24;;;;;;;;;;;17.00;62.60;;;;;;5037179;28;933;-71
2023/02/06 04:43:50;;;;;;;;;;;17.00;62.60;;;;;;5024571;28;1109;-70
2023/02/06 04:46:15;;;;;;;;;;;17.00;62.60;;;;;;5041280;28;877;-70
2023/02/06 04:48:40;;;;;;;;;;;17.00;62.60;;;;;;5038232;28;1358;-70
2023/02/06 04:51:06;;;;;;;;;;;17.00;62.60;;;;;;5036450;28;1954;-70
2023/02/06 04:53:31;;;;;;;;;;;17.00;62.60;;;;;;5038580;28;1455;-71
2023/02/06 04:56:00;;;;;;;;;;;17.00;62.60;;;;;;5039070;28;821;-71
2023/02/06 04:58:26;;;;;;;;;;;17.00;62.60;;;;;;5038903;28;919;-71
2023/02/06 05:00:51;;;;;;;;;;;17.00;62.60;;;;;;5039210;28;1325;-71
2023/02/06 05:03:17;;;;;;;;;;;17.00;62.60;;;;;;5042013;28;1710;-71
2023/02/06 05:05:42;;;;;;;;;;;17.00;62.60;;;;;;5035918;28;905;-72
2023/02/06 05:08:08;;;;;;;;;;;17.00;62.60;;;;;;5036937;28;911;-71
2023/02/06 05:10:33;;;;;;;;;;;17.00;62.50;;;;;;5037036;28;1963;-71
2023/02/06 05:12:59;;;;;;;;;;;17.00;62.50;;;;;;5037779;28;1025;-71
2023/02/06 05:15:24;;;;;;;;;;;17.00;62.40;;;;;;5036064;28;920;-71
2023/02/06 05:17:49;;;;;;;;;;;17.10;62.40;;;;;;5039068;28;926;-72
2023/02/06 05:20:15;;;;;;;;;;;17.10;62.30;;;;;;5037825;28;1200;-71
2023/02/06 05:22:40;;;;;;;;;;;17.10;62.20;;;;;;5036639;28;1034;-71
2023/02/06 05:25:06;;;;;;;;;;;17.10;62.10;;;;;;5040777;28;870;-71
2023/02/06 05:27:31;;;;;;;;;;;17.10;61.90;;;;;;5041159;28;800;-69
2023/02/06 05:29:57;;;;;;;;;;;17.20;61.80;;;;;;5024769;28;1979;-70
2023/02/06 05:32:22;;;;;;;;;;;17.20;61.70;;;;;;5036068;28;2018;-69
2023/02/06 05:34:48;;;;;;;;;;;17.20;61.60;;;;;;5041122;28;1436;-69
2023/02/06 05:37:13;;;;;;;;;;;17.20;61.50;;;;;;5028758;28;4907;-68
2023/02/06 05:39:39;;;;;;;;;;;17.30;61.50;;;;;;5034306;28;1814;-69
2023/02/06 05:42:04;;;;;;;;;;;17.30;61.40;;;;;;5035581;28;934;-68
2023/02/06 05:44:30;;;;;;;;;;;17.30;61.40;;;;;;5038152;28;1029;-68
2023/02/06 05:46:55;;;;;;;;;;;17.30;61.20;;;;;;5035314;28;878;-68
2023/02/06 05:49:21;;;;;;;;;;;17.40;61.20;;;;;;5038921;28;1245;-68
2023/02/06 05:51:46;;;;;;;;;;;17.30;61.10;;;;;;5033802;28;1906;-68
2023/02/06 05:54:12;;;;;;;;;;;17.40;61.20;;;;;;5038799;28;862;-68
2023/02/06 05:56:37;;;;;;;;;;;17.40;61.10;;;;;;5035324;28;882;-68
2023/02/06 05:59:02;;;;;;;;;;;17.40;61.00;;;;;;5038585;28;1249;-68
2023/02/06 06:01:28;;;;;;;;;;;17.40;61.00;;;;;;5037171;28;950;-69
2023/02/06 06:03:54;;;;;;;;;;;17.40;60.90;;;;;;5022410;28;1666;-69
2023/02/06 06:06:19;;;;;;;;;;;17.40;60.90;;;;;;5036684;28;842;-69
2023/02/06 06:08:45;;;;;;;;;;;17.40;60.90;;;;;;5053946;28;1274;-69
2023/02/06 06:11:10;;;;;;;;;;;17.40;60.90;;;;;;5039176;28;1898;-69
2023/02/06 06:13:36;;;;;;;;;;;17.40;60.80;;;;;;5040442;28;947;-68
2023/02/06 06:16:01;;;;;;;;;;;17.50;60.90;;;;;;5036965;28;1276;-68
2023/02/06 06:18:27;;;;;;;;;;;17.50;60.90;;;;;;5038961;28;823;-68
2023/02/06 06:20:52;;;;;;;;;;;17.50;60.90;;;;;;5037600;28;1062;-70
2023/02/06 06:23:18;;;;;;;;;;;17.50;60.80;;;;;;5037213;28;950;-71
2023/02/06 06:25:44;;;;;;;;;;;17.50;60.80;;;;;;5024163;28;1560;-72
2023/02/06 06:28:09;;;;;;;;;;;17.40;60.70;;;;;;5055132;28;1484;-70
2023/02/06 06:30:36;;;;;;;;;;;17.50;60.80;;;;;;5039279;28;1906;-71
2023/02/06 06:33:01;;;;;;;;;;;17.40;60.70;;;;;;5041567;28;828;-71
2023/02/06 06:35:27;;;;;;;;;;;17.50;60.70;;;;;;5039549;28;1037;-71
2023/02/06 06:37:52;;;;;;;;;;;17.50;60.70;;;;;;5036155;28;936;-70
2023/02/06 06:40:18;;;;;;;;;;;17.50;60.70;;;;;;5036977;28;1342;-70
2023/02/06 06:42:43;;;;;;;;;;;17.40;61.40;;;;;;5022280;28;1163;-69
2023/02/06 06:45:09;;;;;;;;;;;17.50;60.70;;;;;;5038372;28;930;-69
2023/02/06 06:47:34;;;;;;;;;;;17.50;60.60;;;;;;5037344;28;955;-69
2023/02/06 06:50:00;;;;;;;;;;;17.50;60.60;;;;;;5034613;28;1910;-68
2023/02/06 06:52:25;;;;;;;;;;;17.50;60.70;;;;;;5038607;28;934;-69
2023/02/06 06:54:51;;;;;;;;;;;17.50;60.60;;;;;;5039190;28;811;-69
2023/02/06 06:57:16;;;;;;;;;;;17.50;60.60;;;;;;5038840;28;966;-69
2023/02/06 06:59:41;;;;;;;;;;;17.50;60.60;;;;;;5041788;28;1272;-69
2023/02/06 07:02:08;;;;;;;;;;;17.50;60.60;;;;;;5042243;28;901;-70
2023/02/06 07:04:34;;;;;;;;;;;17.50;60.70;;;;;;5059462;28;940;-70
2023/02/06 07:06:59;;;;;;;;;;;17.50;60.60;;;;;;5033168;28;896;-70
2023/02/06 07:09:25;;;;;;;;;;;17.50;60.60;;;;;;5041122;28;1672;-70
2023/02/06 07:11:50;;;;;;;;;;;17.50;60.70;;;;;;5040451;28;1921;-70
2023/02/06 07:14:16;;;;;;;;;;;17.50;60.60;;;;;;5042677;28;912;-70
2023/02/06 07:16:41;;;;;;;;;;;17.50;60.70;;;;;;5038926;28;888;-70
2023/02/06 07:19:07;;;;;;;;;;;17.50;60.70;;;;;;5041801;28;1204;-70
2023/02/06 07:21:33;;;;;;;;;;;17.50;61.50;;;;;;5040469;28;864;-70
2023/02/06 07:24:00;;;;;;;;;;;17.50;60.70;;;;;;5041065;28;876;-68
2023/02/06 07:26:26;;;;;;;;;;;17.50;60.70;;;;;;5055852;28;920;-69
2023/02/06 07:28:51;;;;;;;;;;;17.50;60.70;;;;;;5042356;28;1369;-67
2023/02/06 07:31:17;;;;;;;;;;;17.50;60.80;;;;;;5040088;28;1915;-70
2023/02/06 07:33:42;;;;;;;;;;;17.40;60.70;;;;;;5040979;28;850;-70
2023/02/06 07:36:08;;;;;;;;;;;17.40;60.70;;;;;;5041595;28;1303;-71
2023/02/06 07:38:34;;;;;;;;;;;17.40;60.80;;;;;;5034614;28;1377;-70
2023/02/06 07:41:02;;;;;;;;;;;17.40;60.80;;;;;;5027572;28;1244;-69
2023/02/06 07:43:28;;;;;;;;;;;17.40;60.80;;;;;;5044280;28;867;-69
2023/02/06 07:45:56;;;;;;;;;;;17.40;60.90;;;;;;5038808;28;851;-70
2023/02/06 07:48:22;;;;;;;;;;;17.40;60.90;;;;;;5043344;28;849;-69
2023/02/06 07:50:47;;;;;;;;;;;17.40;61.00;;;;;;5039614;28;1902;-69
2023/02/06 07:53:13;;;;;;;;;;;17.40;61.00;;;;;;5042351;28;999;-68
2023/02/06 07:55:38;;;;;;;;;;;17.40;61.00;;;;;;5040846;28;884;-70
2023/02/06 07:58:04;;;;;;;;;;;17.40;61.00;;;;;;5032701;28;1348;-69
2023/02/06 08:00:29;;;;;;;;;;;17.30;61.00;;;;;;5040103;28;1351;-68
2023/02/06 08:02:55;;;;;;;;;;;17.30;61.00;;;;;;5039328;28;839;-68
2023/02/06 08:05:20;;;;;;;;;;;17.30;61.10;;;;;;5039159;28;949;-69
2023/02/06 08:07:46;;;;;;;;;;;17.30;61.10;;;;;;5040467;28;1695;-69
2023/02/06 08:10:11;;;;;;;;;;;17.30;61.20;;;;;;5040829;28;1989;-69
2023/02/06 08:12:37;;;;;;;;;;;17.30;61.20;;;;;;5037390;28;1042;-69
2023/02/06 08:15:02;;;;;;;;;;;17.30;61.20;;;;;;5037119;28;893;-68
2023/02/06 08:17:28;;;;;;;;;;;17.30;61.20;;;;;;5040593;28;810;-70
2023/02/06 08:19:53;;;;;;;;;;;17.30;61.20;;;;;;5038708;28;1283;-68
2023/02/06 08:22:19;;;;;;;;;;;17.30;61.40;;;;;;5042225;28;810;-69
2023/02/06 08:24:44;;;;;;;;;;;17.30;61.30;;;;;;5038892;28;1620;-69
2023/02/06 08:27:10;;;;;;;;;;;17.30;61.30;;;;;;5031677;28;940;-68
2023/02/06 08:29:41;;;;;;;;;;;17.30;61.30;;;;;;5039841;28;1336;-70
2023/02/06 08:32:07;;;;;;;;;;;17.30;61.20;;;;;;5046612;28;1914;-70
2023/02/06 08:34:32;;;;;;;;;;;17.30;61.20;;;;;;5039245;28;1158;-70
2023/02/06 08:36:58;;;;;;;;;;;17.30;61.20;;;;;;5039932;28;785;-69
2023/02/06 08:39:23;;;;;;;;;;;17.30;61.20;;;;;;5037494;28;1288;-69
2023/02/06 08:41:49;;;;;;;;;;;17.30;61.10;;;;;;5014676;28;1143;-70
2023/02/06 08:44:15;;;;;;;;;;;17.30;61.10;;;;;;5038880;28;887;-69
2023/02/06 08:46:40;;;;;;;;;;;17.40;61.10;;;;;;5054036;28;918;-69
2023/02/06 08:49:07;;;;;;;;;;;17.40;61.00;;;;;;5025700;28;1223;-68
2023/02/06 08:51:33;;;;;;;;;;;17.40;61.00;;;;;;5038980;28;1953;-68
2023/02/06 08:53:59;;;;;;;;;;;17.40;60.90;;;;;;5039086;28;978;-69
2023/02/06 08:56:24;;;;;;;;;;;17.40;60.90;;;;;;5037717;28;894;-69
2023/02/06 08:58:50;;;;;;;;;;;17.40;60.90;;;;;;5038372;28;1345;-69
2023/02/06 09:01:15;;;;;;;;;;;17.40;60.80;;;;;;5025692;28;859;-71
2023/02/06 09:03:42;;;;;;;;;;;17.40;60.80;;;;;;5046128;28;1290;-69
2023/02/06 09:06:07;;;;;;;;;;;17.40;60.80;;;;;;5051869;28;800;-70
2023/02/06 09:08:33;;;;;;;;;;;17.40;60.80;;;;;;5054445;28;1375;-70
2023/02/06 09:11:05;;;;;;;;;;;17.40;60.80;;;;;;5038840;28;1898;-70
2023/02/06 09:13:31;;;;;;;;;;;17.40;60.70;;;;;;5026124;28;896;-69
2023/02/06 09:15:56;;;;;;;;;;;17.50;60.70;;;;;;5024175;28;1285;-68
2023/02/06 09:18:22;;;;;;;;;;;17.40;60.60;;;;;;5052938;28;2024;-69
2023/02/06 09:20:48;;;;;;;;;;;17.50;60.70;;;;;;5040099;28;1500;-68
2023/02/06 09:23:15;;;;;;;;;;;17.50;60.70;;;;;;5037262;28;1276;-68
2023/02/06 09:25:40;;;;;;;;;;;17.50;60.70;;;;;;5039518;28;873;-69
2023/02/06 09:28:06;;;;;;;;;;;17.50;60.70;;;;;;5036667;28;910;-68
2023/02/06 09:30:31;;;;;;;;;;;17.50;60.70;;;;;;5038136;28;1973;-68
2023/02/06 09:32:57;;;;;;;;;;;17.50;60.60;;;;;;5037018;28;936;-68
2023/02/06 09:35:22;;;;;;;;;;;17.50;60.60;;;;;;5036276;28;1128;-67
2023/02/06 09:37:48;;;;;;;;;;;17.40;60.60;;;;;;5020576;28;1265;-67
2023/02/06 09:40:14;;;;;;;;;;;17.50;60.60;;;;;;5037914;28;1401;-67
2023/02/06 09:42:39;;;;;;;;;;;17.50;60.60;;;;;;5024369;28;919;-68
2023/02/06 09:45:24;;;;;;;;;;;17.50;60.60;;;;;;5040141;28;875;-69
2023/02/06 09:47:51;;;;;;;;;;;17.50;60.60;;;;;;5039593;28;2096;-68
2023/02/06 09:50:22;;;;;;;;;;;17.50;60.50;;;;;;5021969;28;1976;-71
2023/02/06 09:53:03;;;;;;;;;;;17.50;60.50;;;;;;5038866;28;1550;-70
2023/02/06 09:55:35;;;;;;;;;;;17.50;60.50;;;;;;5037860;28;873;-69
2023/02/06 09:58:00;;;;;;;;;;;17.50;60.60;;;;;;5052542;28;847;-68
2023/02/06 10:00:28;;;;;;;;;;;17.50;60.50;;;;;;5036983;28;1261;-71
2023/02/06 10:02:57;;;;;;;;;;;17.50;60.50;;;;;;5023393;28;820;-69
2023/02/06 10:05:23;;;;;;;;;;;17.50;60.50;;;;;;5041906;28;913;-71
2023/02/06 10:07:51;;;;;;;;;;;17.50;60.50;;;;;;5037729;28;884;-75
2023/02/06 10:10:21;;;;;;;;;;;17.50;60.60;;;;;;5038827;28;1926;-72
2023/02/06 10:12:53;;;;;;;;;;;17.50;60.60;;;;;;5053500;28;946;-69
2023/02/06 10:15:24;;;;;;;;;;;17.50;60.60;;;;;;5042260;28;1002;-70
2023/02/06 10:17:51;;;;;;;;;;;17.50;60.60;;;;;;5022848;28;820;-71
2023/02/06 10:20:21;;;;;;;;;;;17.50;60.70;;;;;;5022900;28;1359;-70
2023/02/06 10:22:56;;;;;;;;;;;17.50;60.70;;;;;;5025504;28;809;-71
2023/02/06 10:25:39;;;;;;;;;;;17.40;60.60;;;;;;5036166;28;1208;-71
2023/02/06 10:28:10;;;;;;;;;;;17.40;60.70;;;;;;5024678;28;993;-70
2023/02/06 10:30:55;;;;;;;;;;;17.40;60.70;;;;;;5018150;28;1914;-70
2023/02/06 10:33:23;;;;;;;;;;;17.40;60.80;;;;;;5043039;28;1077;-68
2023/02/06 10:35:58;;;;;;;;;;;17.40;60.80;;;;;;5057570;28;1006;-69
2023/02/06 10:38:39;;;;;;;;;;;17.40;60.80;;;;;;5056639;28;883;-68
2023/02/06 10:41:25;;;;;;;;;;;17.40;60.90;;;;;;5041280;28;822;-68
2023/02/06 10:43:52;;;;;;;;;;;17.40;60.90;;;;;;5022697;28;1303;-69
2023/02/06 10:46:27;;;;;;;;;;;17.40;60.90;;;;;;5054537;28;896;-72
2023/02/06 10:49:13;;;;;;;;;;;17.40;60.90;;;;;;5041116;28;1247;-70
2023/02/06 10:51:42;;;;;;;;;;;17.40;61.10;;;;;;5005415;28;1968;-70
2023/02/06 10:54:10;;;;;;;;;;;17.60;60.90;;;;;;5046451;28;1962;-69
2023/02/06 10:56:38;;;;;;;;;;;17.70;60.80;;;;;;5039225;28;1897;-69
2023/02/06 10:59:05;;;;;;;;;;;17.90;60.60;;;;;;5058890;28;1332;-69
2023/02/06 11:01:33;;;;;;;;;;;18.00;60.20;;;;;;5025812;28;1302;-69
2023/02/06 11:04:15;;;;;;;;;;;18.20;60.50;;;;;;5040217;28;927;-70
2023/02/06 11:06:41;;;;;;;;;;;18.40;59.50;;;;;;5056250;28;867;-67
2023/02/06 11:09:07;;;;;;;;;;;18.60;59.10;;;;;;5058158;28;1298;-69
2023/02/06 11:11:35;;;;;;;;;;;18.70;58.70;;;;;;5040244;28;1973;-68
2023/02/06 11:14:05;;;;;;;;;;;18.90;58.40;;;;;;5041001;28;1065;-68
2023/02/06 11:16:30;;;;;;;;;;;19.00;58.10;;;;;;5021983;28;1178;-68
2023/02/06 11:18:58;;;;;;;;;;;19.20;57.80;;;;;;5025553;28;1337;-68
2023/02/06 11:21:42;;;;;;;;;;;19.30;57.50;;;;;;5040036;28;961;-68
2023/02/06 11:24:11;;;;;;;;;;;19.50;57.30;;;;;;5040614;28;913;-68
2023/02/06 11:26:51;;;;;;;;;;;19.60;57.00;;;;;;5053458;28;1074;-69
2023/02/06 11:29:18;;;;;;;;;;;19.70;56.80;;;;;;5039851;28;1951;-69
2023/02/06 11:31:45;;;;;;;;;;;19.80;56.50;;;;;;5040953;28;1938;-68
2023/02/06 11:34:24;;;;;;;;;;;19.90;56.30;;;;;;5055460;28;1434;-70
2023/02/06 11:36:51;;;;;;;;;;;20.00;56.10;;;;;;5027599;28;1018;-69
2023/02/06 11:39:22;;;;;;;;;;;20.00;55.80;;;;;;5055575;28;1292;-69
2023/02/06 11:41:58;;;;;;;;;;;20.10;55.70;;;;;;5044116;28;847;-69
2023/02/06 11:44:23;;;;;;;;;;;20.20;55.60;;;;;;5043381;28;826;-70
2023/02/06 11:46:49;;;;;;;;;;;20.20;55.40;;;;;;5041321;28;863;-69
2023/02/06 11:49:17;;;;;;;;;;;20.30;55.30;;;;;;5037957;28;1285;-70
2023/02/06 11:51:44;;;;;;;;;;;20.30;55.20;;;;;;5039768;28;1954;-69
2023/02/06 11:54:17;;;;;;;;;;;20.40;55.20;;;;;;5052245;28;1037;-70
2023/02/06 11:56:42;;;;;;;;;;;20.40;55.10;;;;;;5037591;28;1542;-69
2023/02/06 11:59:15;;;;;;;;;;;20.50;55.10;;;;;;5056817;28;1489;-70
2023/02/06 12:01:42;;;;;;;;;;;20.50;55.00;;;;;;5040512;28;1355;-69
2023/02/06 12:04:14;;;;;;;;;;;20.50;55.00;;;;;;5042049;28;1249;-70
2023/02/06 12:06:40;;;;;;;;;;;20.50;55.00;;;;;;5025983;28;1132;-70
2023/02/06 12:09:09;;;;;;;;;;;20.60;55.00;;;;;;5057345;28;1280;-69
2023/02/06 12:11:36;;;;;;;;;;;20.60;55.00;;;;;;5018901;28;1954;-70
2023/02/06 12:14:13;;;;;;;;;;;20.60;55.00;;;;;;5031095;28;1519;-70
2023/02/06 12:16:39;;;;;;;;;;;20.60;55.00;;;;;;5039756;28;1443;-69
2023/02/06 12:19:09;;;;;;;;;;;20.60;55.00;;;;;;5056049;28;1343;-70
2023/02/06 12:21:35;;;;;;;;;;;20.60;55.10;;;;;;5026548;28;934;-69
2023/02/06 12:24:01;;;;;;;;;;;20.60;55.20;;;;;;5041169;28;799;-71
2023/02/06 12:26:27;;;;;;;;;;;20.50;55.30;;;;;;5024898;28;891;-71
2023/02/06 12:29:01;;;;;;;;;;;20.50;55.30;;;;;;5019819;28;1292;-70
2023/02/06 12:31:40;;;;;;;;;;;20.50;55.40;;;;;;5056029;28;1910;-72
2023/02/06 12:34:10;;;;;;;;;;;20.50;55.50;;;;;;5039827;28;1334;-71
2023/02/06 12:36:38;;;;;;;;;;;20.40;55.50;;;;;;5018409;28;1445;-70
2023/02/06 12:39:05;;;;;;;;;;;20.40;55.50;;;;;;5022640;28;1643;-68
2023/02/06 12:41:50;;;;;;;;;;;20.40;55.50;;;;;;5024340;28;903;-69
2023/02/06 12:44:15;;;;;;;;;;;20.30;55.60;;;;;;5040610;28;892;-69
2023/02/06 12:46:41;;;;;;;;;;;20.30;55.70;;;;;;5041034;28;950;-69
2023/02/06 12:49:06;;;;;;;;;;;20.20;55.70;;;;;;5021148;28;1401;-69
2023/02/06 12:51:34;;;;;;;;;;;20.20;55.70;;;;;;5039688;28;1906;-69
2023/02/06 12:54:02;;;;;;;;;;;20.20;55.90;;;;;;5038991;28;828;-70
2023/02/06 12:56:33;;;;;;;;;;;20.20;55.90;;;;;;5040039;28;947;-70
2023/02/06 12:59:07;;;;;;;;;;;20.10;55.90;;;;;;5028218;28;1382;-68
2023/02/06 13:01:39;;;;;;;;;;;20.10;56.10;;;;;;5038794;28;879;-67
2023/02/06 13:04:05;;;;;;;;;;;20.10;56.10;;;;;;5037493;28;993;-67
2023/02/06 13:06:51;;;;;;;;;;;20.10;56.20;;;;;;5038794;28;950;-69
2023/02/06 13:09:19;;;;;;;;;;;20.10;56.30;;;;;;5037566;28;1279;-69
2023/02/06 13:11:44;;;;;;;;;;;20.10;56.40;;;;;;5038349;28;1914;-69
2023/02/06 13:14:18;;;;;;;;;;;20.10;56.40;;;;;;5021976;28;1506;-68
2023/02/06 13:16:51;;;;;;;;;;;20.10;56.40;;;;;;5038388;28;1197;-68
2023/02/06 13:19:19;;;;;;;;;;;20.10;56.30;;;;;;5022379;28;1327;-68
2023/02/06 13:21:49;;;;;;;;;;;20.10;56.20;;;;;;5038609;28;1320;-70
2023/02/06 13:24:15;;;;;;;;;;;20.10;56.10;;;;;;5052994;28;1247;-70
2023/02/06 13:26:56;;;;;;;;;;;20.20;56.00;;;;;;5054471;28;892;-67
2023/02/06 13:29:21;;;;;;;;;;;20.20;55.90;;;;;;5037884;28;1371;-68
2023/02/06 13:31:47;;;;;;;;;;;20.20;55.80;;;;;;5039164;28;2015;-69
2023/02/06 13:34:13;;;;;;;;;;;20.20;55.80;;;;;;5041852;28;1210;-69
2023/02/06 13:36:40;;;;;;;;;;;20.20;55.80;;;;;;5054191;28;836;-68
2023/02/06 13:39:21;;;;;;;;;;;20.20;55.80;;;;;;5056619;28;1349;-68
2023/02/06 13:41:47;;;;;;;;;;;20.20;55.80;;;;;;5031752;28;1259;-68
2023/02/06 13:44:32;;;;;;;;;;;20.20;55.80;;;;;;5038914;28;975;-68
2023/02/06 13:47:16;;;;;;;;;;;20.20;55.80;;;;;;5040127;28;1814;-68
2023/02/06 13:49:42;;;;;;;;;;;20.20;55.90;;;;;;5039236;28;1278;-68
2023/02/06 13:52:13;;;;;;;;;;;20.20;55.90;;;;;;5038390;28;1955;-68
2023/02/06 13:54:39;;;;;;;;;;;20.10;55.80;;;;;;5040902;28;800;-67
2023/02/06 13:57:23;;;;;;;;;;;20.10;55.90;;;;;;5038612;28;856;-69
2023/02/06 14:00:01;;;;;;;;;;;20.10;55.90;;;;;;5037149;28;1362;-69
2023/02/06 14:02:29;;;;;;;;;;;20.10;55.90;;;;;;5021805;28;929;-69
2023/02/06 14:04:59;;;;;;;;;;;20.00;55.90;;;;;;5052973;28;1883;-69
2023/02/06 14:07:43;;;;;;;;;;;20.00;56.00;;;;;;5041719;28;1376;-69
2023/02/06 14:10:12;;;;;;;;;;;20.00;56.00;;;;;;5042737;28;1922;-68
2023/02/06 14:12:44;;;;;;;;;;;19.90;56.00;;;;;;5044558;28;830;-69
2023/02/06 14:15:13;;;;;;;;;;;19.90;56.10;;;;;;5027199;28;1026;-69
2023/02/06 14:17:38;;;;;;;;;;;19.90;56.10;;;;;;5041483;28;851;-68
2023/02/06 14:20:13;;;;;;;;;;;19.90;56.10;;;;;;5042061;28;1287;-68
2023/02/06 14:22:41;;;;;;;;;;;19.90;56.40;;;;;;5026191;28;848;-69
2023/02/06 14:25:13;;;;;;;;;;;19.90;56.30;;;;;;5024284;28;834;-70
2023/02/06 14:27:42;;;;;;;;;;;19.90;56.20;;;;;;5034225;28;876;-69
2023/02/06 14:30:26;;;;;;;;;;;19.90;56.10;;;;;;5027580;28;1953;-71
2023/02/06 14:32:57;;;;;;;;;;;20.00;56.10;;;;;;5040058;28;865;-69
2023/02/06 14:35:29;;;;;;;;;;;20.00;55.90;;;;;;5040492;28;1068;-69
2023/02/06 14:38:33;;;;;;;;;;;20.00;55.80;;;;;;5029117;28;887;-69
2023/02/06 14:41:00;;;;;;;;;;;20.10;55.80;;;;;;5041731;28;1248;-69